sensor_id;sensor_type;location;lat;lon;timestamp;pressure;altitude;pressure_sealevel;temperature;humidity
21011;BME280;10663;42.714;23.274;2023-03-25T00:00:23;94528.88;;;10.80;65.06
21011;BME280;10663;42.714;23.274;2023-03-25T00:01:54;94532.59;;;10.74;65.48
21011;BME280;10663;42.714;23.274;2023-03-25T00:03:27;94522.00;;;10.74;65.51
21011;BME280;10663;42.714;23.274;2023-03-25T00:04:59;94529.19;;;10.58;66.77
21011;BME280;10663;42.714;23.274;2023-03-25T00:06:33;94525.47;;;10.59;66.29
21011;BME280;10663;42.714;23.274;2023-03-25T00:08:04;94523.66;;;10.55;66.76
21011;BME280;10663;42.714;23.274;2023-03-25T00:09:35;94520.19;;;10.59;66.38
21011;BME280;10663;42.714;23.274;2023-03-25T00:11:06;94522.56;;;10.61;66.11
21011;BME280;10663;42.714;23.274;2023-03-25T00:12:38;94518.84;;;10.57;66.15
21011;BME280;10663;42.714;23.274;2023-03-25T00:14:10;94510.13;;;10.61;65.85
21011;BME280;10663;42.714;23.274;2023-03-25T00:15:42;94511.72;;;10.62;65.85
21011;BME280;10663;42.714;23.274;2023-03-25T00:17:16;94513.03;;;10.60;65.93
21011;BME280;10663;42.714;23.274;2023-03-25T00:18:47;94515.44;;;10.51;65.88
21011;BME280;10663;42.714;23.274;2023-03-25T00:20:19;94517.31;;;10.45;66.37
21011;BME280;10663;42.714;23.274;2023-03-25T00:21:51;94511.75;;;10.42;66.79
21011;BME280;10663;42.714;23.274;2023-03-25T00:23:22;94506.44;;;10.42;66.67
21011;BME280;10663;42.714;23.274;2023-03-25T00:24:53;94508.84;;;10.43;66.89
21011;BME280;10663;42.714;23.274;2023-03-25T00:26:23;94501.94;;;10.42;67.03
21011;BME280;10663;42.714;23.274;2023-03-25T00:27:59;94499.03;;;10.49;66.42
21011;BME280;10663;42.714;23.274;2023-03-25T00:29:30;94501.91;;;10.58;66.31
21011;BME280;10663;42.714;23.274;2023-03-25T00:31:04;94506.41;;;10.57;66.33
21011;BME280;10663;42.714;23.274;2023-03-25T00:32:35;94501.13;;;10.57;65.97
21011;BME280;10663;42.714;23.274;2023-03-25T00:34:07;94509.34;;;10.50;66.37
21011;BME280;10663;42.714;23.274;2023-03-25T00:35:41;94504.59;;;10.53;66.33
21011;BME280;10663;42.714;23.274;2023-03-25T00:37:15;94510.41;;;10.39;66.75
21011;BME280;10663;42.714;23.274;2023-03-25T00:38:47;94503.84;;;10.37;67.04
21011;BME280;10663;42.714;23.274;2023-03-25T00:40:18;94504.06;;;10.40;66.95
21011;BME280;10663;42.714;23.274;2023-03-25T00:41:52;94499.84;;;10.39;66.87
21011;BME280;10663;42.714;23.274;2023-03-25T00:43:24;94497.19;;;10.39;67.07
21011;BME280;10663;42.714;23.274;2023-03-25T00:44:55;94502.75;;;10.33;67.30
21011;BME280;10663;42.714;23.274;2023-03-25T00:46:28;94499.88;;;10.24;67.56
21011;BME280;10663;42.714;23.274;2023-03-25T00:48:00;94500.66;;;10.25;67.40
21011;BME280;10663;42.714;23.274;2023-03-25T00:49:31;94498.00;;;10.30;67.55
21011;BME280;10663;42.714;23.274;2023-03-25T00:51:01;94493.25;;;10.32;67.35
21011;BME280;10663;42.714;23.274;2023-03-25T00:52:36;94485.28;;;10.32;67.26
21011;BME280;10663;42.714;23.274;2023-03-25T00:54:08;94483.72;;;10.31;67.35
21011;BME280;10663;42.714;23.274;2023-03-25T00:55:39;94489.81;;;10.26;67.45
21011;BME280;10663;42.714;23.274;2023-03-25T00:57:11;94491.13;;;10.08;68.20
21011;BME280;10663;42.714;23.274;2023-03-25T00:58:42;94494.31;;;10.10;67.95
21011;BME280;10663;42.714;23.274;2023-03-25T01:00:15;94477.94;;;10.19;67.88
21011;BME280;10663;42.714;23.274;2023-03-25T01:01:46;94483.72;;;10.10;68.04
21011;BME280;10663;42.714;23.274;2023-03-25T01:03:17;94483.19;;;10.13;68.10
21011;BME280;10663;42.714;23.274;2023-03-25T01:04:49;94480.53;;;10.13;68.04
21011;BME280;10663;42.714;23.274;2023-03-25T01:06:20;94482.94;;;10.20;67.82
21011;BME280;10663;42.714;23.274;2023-03-25T01:07:51;94478.44;;;10.10;67.75
21011;BME280;10663;42.714;23.274;2023-03-25T01:09:22;94485.31;;;10.06;68.13
21011;BME280;10663;42.714;23.274;2023-03-25T01:10:53;94483.72;;;10.05;68.35
21011;BME280;10663;42.714;23.274;2023-03-25T01:12:24;94470.22;;;10.17;67.57
21011;BME280;10663;42.714;23.274;2023-03-25T01:13:57;94473.91;;;10.16;67.34
21011;BME280;10663;42.714;23.274;2023-03-25T01:15:29;94480.28;;;10.05;67.91
21011;BME280;10663;42.714;23.274;2023-03-25T01:17:00;94480.00;;;10.06;68.04
21011;BME280;10663;42.714;23.274;2023-03-25T01:18:33;94472.34;;;10.00;68.04
21011;BME280;10663;42.714;23.274;2023-03-25T01:20:07;94476.06;;;9.99;68.36
21011;BME280;10663;42.714;23.274;2023-03-25T01:21:39;94465.75;;;9.97;68.20
21011;BME280;10663;42.714;23.274;2023-03-25T01:23:13;94467.88;;;10.00;68.19
21011;BME280;10663;42.714;23.274;2023-03-25T01:24:45;94464.41;;;9.95;68.50
21011;BME280;10663;42.714;23.274;2023-03-25T01:26:17;94463.34;;;9.96;68.23
21011;BME280;10663;42.714;23.274;2023-03-25T01:27:48;94458.09;;;10.01;68.23
21011;BME280;10663;42.714;23.274;2023-03-25T01:29:21;94458.34;;;9.99;68.32
21011;BME280;10663;42.714;23.274;2023-03-25T01:31:02;94450.94;;;10.01;67.94
21011;BME280;10663;42.714;23.274;2023-03-25T01:32:32;94446.94;;;9.94;68.18
21011;BME280;10663;42.714;23.274;2023-03-25T01:34:04;94450.69;;;9.83;68.84
21011;BME280;10663;42.714;23.274;2023-03-25T01:35:35;94453.31;;;9.93;68.41
21011;BME280;10663;42.714;23.274;2023-03-25T01:37:06;94442.19;;;9.86;68.43
21011;BME280;10663;42.714;23.274;2023-03-25T01:38:39;94440.38;;;9.81;68.71
21011;BME280;10663;42.714;23.274;2023-03-25T01:40:16;94437.19;;;9.89;68.51
21011;BME280;10663;42.714;23.274;2023-03-25T01:41:49;94437.44;;;9.88;68.51
21011;BME280;10663;42.714;23.274;2023-03-25T01:43:20;94437.97;;;9.90;68.38
21011;BME280;10663;42.714;23.274;2023-03-25T01:46:25;94443.25;;;9.95;68.21
21011;BME280;10663;42.714;23.274;2023-03-25T01:48:02;94444.31;;;9.84;68.87
21011;BME280;10663;42.714;23.274;2023-03-25T01:49:38;94448.53;;;9.95;68.40
21011;BME280;10663;42.714;23.274;2023-03-25T01:51:17;94435.06;;;10.01;67.97
21011;BME280;10663;42.714;23.274;2023-03-25T01:52:50;94443.25;;;10.05;67.65
21011;BME280;10663;42.714;23.274;2023-03-25T01:54:23;94439.56;;;9.91;68.31
21011;BME280;10663;42.714;23.274;2023-03-25T01:55:54;94443.25;;;9.95;68.22
21011;BME280;10663;42.714;23.274;2023-03-25T01:57:26;94440.06;;;10.03;67.57
21011;BME280;10663;42.714;23.274;2023-03-25T01:59:00;94439.81;;;10.04;67.48
21011;BME280;10663;42.714;23.274;2023-03-25T02:00:32;94436.13;;;10.00;67.80
21011;BME280;10663;42.714;23.274;2023-03-25T02:02:05;94441.41;;;10.05;67.66
21011;BME280;10663;42.714;23.274;2023-03-25T02:03:39;94431.34;;;10.02;67.74
21011;BME280;10663;42.714;23.274;2023-03-25T02:05:20;94434.28;;;10.01;67.58
21011;BME280;10663;42.714;23.274;2023-03-25T02:06:55;94431.09;;;9.99;67.72
21011;BME280;10663;42.714;23.274;2023-03-25T02:08:30;94429.75;;;9.96;67.78
21011;BME280;10663;42.714;23.274;2023-03-25T02:10:06;94425.78;;;9.94;67.66
21011;BME280;10663;42.714;23.274;2023-03-25T02:11:38;94427.66;;;9.93;67.53
21011;BME280;10663;42.714;23.274;2023-03-25T02:13:09;94430.59;;;9.92;67.78
21011;BME280;10663;42.714;23.274;2023-03-25T02:14:40;94431.38;;;9.92;67.62
21011;BME280;10663;42.714;23.274;2023-03-25T02:25:00;94428.47;;;9.79;67.94
21011;BME280;10663;42.714;23.274;2023-03-25T02:28:42;94415.78;;;9.75;68.01
21011;BME280;10663;42.714;23.274;2023-03-25T02:32:04;94420.00;;;9.76;67.69
21011;BME280;10663;42.714;23.274;2023-03-25T02:41:22;94418.16;;;9.72;67.61
21011;BME280;10663;42.714;23.274;2023-03-25T02:43:23;94418.44;;;9.60;67.54
21011;BME280;10663;42.714;23.274;2023-03-25T02:45:11;94415.78;;;9.65;67.56
21011;BME280;10663;42.714;23.274;2023-03-25T02:46:50;94415.25;;;9.58;67.73
21011;BME280;10663;42.714;23.274;2023-03-25T02:48:39;94407.84;;;9.60;67.93
21011;BME280;10663;42.714;23.274;2023-03-25T02:50:20;94416.84;;;9.69;67.28
21011;BME280;10663;42.714;23.274;2023-03-25T02:51:59;94415.78;;;9.65;67.34
21011;BME280;10663;42.714;23.274;2023-03-25T02:53:33;94413.41;;;9.64;67.32
21011;BME280;10663;42.714;23.274;2023-03-25T02:55:07;94415.00;;;9.65;67.32
21011;BME280;10663;42.714;23.274;2023-03-25T02:56:42;94416.56;;;9.66;67.38
21011;BME280;10663;42.714;23.274;2023-03-25T02:58:16;94411.56;;;9.59;67.27
21011;BME280;10663;42.714;23.274;2023-03-25T02:59:49;94400.97;;;9.59;67.51
21011;BME280;10663;42.714;23.274;2023-03-25T03:01:24;94400.72;;;9.61;67.50
21011;BME280;10663;42.714;23.274;2023-03-25T03:03:01;94406.00;;;9.61;67.31
21011;BME280;10663;42.714;23.274;2023-03-25T03:06:17;94394.38;;;9.52;67.68
21011;BME280;10663;42.714;23.274;2023-03-25T03:07:53;94399.16;;;9.55;67.73
21011;BME280;10663;42.714;23.274;2023-03-25T03:09:37;94391.75;;;9.47;68.05
21011;BME280;10663;42.714;23.274;2023-03-25T03:11:33;94396.25;;;9.46;68.00
21011;BME280;10663;42.714;23.274;2023-03-25T03:15:03;94401.00;;;9.34;68.37
21011;BME280;10663;42.714;23.274;2023-03-25T03:16:48;94404.94;;;9.31;68.70
21011;BME280;10663;42.714;23.274;2023-03-25T03:22:46;94418.41;;;9.25;68.29
21011;BME280;10663;42.714;23.274;2023-03-25T03:26:56;94408.91;;;9.24;68.64
21011;BME280;10663;42.714;23.274;2023-03-25T03:29:47;94401.50;;;9.31;68.15
21011;BME280;10663;42.714;23.274;2023-03-25T03:31:37;94405.75;;;9.27;68.29
21011;BME280;10663;42.714;23.274;2023-03-25T03:33:20;94410.22;;;9.21;68.53
21011;BME280;10663;42.714;23.274;2023-03-25T03:34:59;94408.38;;;9.17;68.75
21011;BME280;10663;42.714;23.274;2023-03-25T03:36:37;94417.34;;;9.06;69.86
21011;BME280;10663;42.714;23.274;2023-03-25T03:38:12;94419.44;;;9.04;69.93
21011;BME280;10663;42.714;23.274;2023-03-25T03:39:47;94430.53;;;9.00;70.18
21011;BME280;10663;42.714;23.274;2023-03-25T03:41:20;94427.34;;;8.93;70.67
21011;BME280;10663;42.714;23.274;2023-03-25T03:42:59;94418.09;;;8.96;70.56
21011;BME280;10663;42.714;23.274;2023-03-25T03:44:34;94426.03;;;8.96;70.49
21011;BME280;10663;42.714;23.274;2023-03-25T03:46:17;94418.34;;;8.94;70.12
21011;BME280;10663;42.714;23.274;2023-03-25T03:47:52;94413.06;;;8.89;70.32
21011;BME280;10663;42.714;23.274;2023-03-25T03:49:28;94423.63;;;8.89;70.44
21011;BME280;10663;42.714;23.274;2023-03-25T03:52:57;94419.41;;;8.88;70.53
21011;BME280;10663;42.714;23.274;2023-03-25T03:54:32;94405.66;;;8.86;70.64
21011;BME280;10663;42.714;23.274;2023-03-25T03:56:13;94414.41;;;8.92;70.08
21011;BME280;10663;42.714;23.274;2023-03-25T03:57:59;94418.63;;;8.88;70.43
21011;BME280;10663;42.714;23.274;2023-03-25T03:59:48;94419.91;;;8.85;70.22
21011;BME280;10663;42.714;23.274;2023-03-25T04:01:31;94422.03;;;8.73;71.60
21011;BME280;10663;42.714;23.274;2023-03-25T04:03:14;94421.75;;;8.80;72.01
21011;BME280;10663;42.714;23.274;2023-03-25T04:04:46;94423.88;;;8.78;71.60
21011;BME280;10663;42.714;23.274;2023-03-25T04:06:22;94420.94;;;8.74;71.90
21011;BME280;10663;42.714;23.274;2023-03-25T04:08:01;94425.16;;;8.70;71.71
21011;BME280;10663;42.714;23.274;2023-03-25T04:11:15;94428.09;;;8.79;71.69
21011;BME280;10663;42.714;23.274;2023-03-25T04:12:51;94420.97;;;8.84;71.21
21011;BME280;10663;42.714;23.274;2023-03-25T04:14:24;94419.66;;;8.82;71.25
21011;BME280;10663;42.714;23.274;2023-03-25T04:15:57;94422.53;;;8.75;71.19
21011;BME280;10663;42.714;23.274;2023-03-25T04:17:29;94416.75;;;8.78;71.30
21011;BME280;10663;42.714;23.274;2023-03-25T04:19:05;94417.28;;;8.80;70.82
21011;BME280;10663;42.714;23.274;2023-03-25T04:20:37;94419.13;;;8.85;70.89
21011;BME280;10663;42.714;23.274;2023-03-25T04:22:16;94413.63;;;8.91;70.56
21011;BME280;10663;42.714;23.274;2023-03-25T04:23:47;94413.88;;;8.90;70.79
21011;BME280;10663;42.714;23.274;2023-03-25T04:25:19;94408.06;;;8.93;71.07
21011;BME280;10663;42.714;23.274;2023-03-25T04:26:55;94417.06;;;8.97;70.56
21011;BME280;10663;42.714;23.274;2023-03-25T04:28:27;94413.09;;;9.05;70.46
21011;BME280;10663;42.714;23.274;2023-03-25T04:29:58;94423.16;;;9.08;70.01
21011;BME280;10663;42.714;23.274;2023-03-25T04:31:31;94418.66;;;8.98;70.61
21011;BME280;10663;42.714;23.274;2023-03-25T04:33:02;94424.22;;;9.17;69.92
21011;BME280;10663;42.714;23.274;2023-03-25T04:34:33;94418.41;;;9.25;69.58
21011;BME280;10663;42.714;23.274;2023-03-25T04:36:04;94418.41;;;9.20;70.15
21011;BME280;10663;42.714;23.274;2023-03-25T04:37:36;94412.88;;;9.31;69.53
21011;BME280;10663;42.714;23.274;2023-03-25T04:39:09;94414.47;;;9.37;69.39
21011;BME280;10663;42.714;23.274;2023-03-25T04:40:41;94411.28;;;9.41;69.30
21011;BME280;10663;42.714;23.274;2023-03-25T04:42:16;94423.72;;;9.50;69.16
21011;BME280;10663;42.714;23.274;2023-03-25T04:43:48;94417.13;;;9.53;68.93
21011;BME280;10663;42.714;23.274;2023-03-25T04:45:19;94416.84;;;9.54;68.88
21011;BME280;10663;42.714;23.274;2023-03-25T04:46:51;94420.81;;;9.52;68.81
21011;BME280;10663;42.714;23.274;2023-03-25T04:48:25;94412.06;;;9.66;68.47
21011;BME280;10663;42.714;23.274;2023-03-25T04:49:59;94416.31;;;9.67;68.08
21011;BME280;10663;42.714;23.274;2023-03-25T04:51:31;94412.06;;;9.82;67.85
21011;BME280;10663;42.714;23.274;2023-03-25T04:53:02;94417.34;;;9.97;67.43
21011;BME280;10663;42.714;23.274;2023-03-25T04:54:33;94413.63;;;9.93;67.14
21011;BME280;10663;42.714;23.274;2023-03-25T04:56:05;94416.28;;;9.98;66.81
21011;BME280;10663;42.714;23.274;2023-03-25T04:57:36;94416.53;;;10.06;66.48
21011;BME280;10663;42.714;23.274;2023-03-25T04:59:07;94419.97;;;10.02;66.42
21011;BME280;10663;42.714;23.274;2023-03-25T05:00:40;94426.06;;;10.07;65.63
21011;BME280;10663;42.714;23.274;2023-03-25T05:02:12;94423.13;;;10.24;65.49
21011;BME280;10663;42.714;23.274;2023-03-25T05:03:43;94417.84;;;10.24;65.29
21011;BME280;10663;42.714;23.274;2023-03-25T05:05:15;94424.19;;;10.28;65.15
21011;BME280;10663;42.714;23.274;2023-03-25T05:06:49;94419.44;;;10.25;65.13
21011;BME280;10663;42.714;23.274;2023-03-25T05:08:20;94425.47;;;10.31;65.15
21011;BME280;10663;42.714;23.274;2023-03-25T05:09:52;94427.56;;;10.44;63.79
21011;BME280;10663;42.714;23.274;2023-03-25T05:11:22;94425.97;;;10.48;64.03
21011;BME280;10663;42.714;23.274;2023-03-25T05:13:05;94422.28;;;10.39;64.40
21011;BME280;10663;42.714;23.274;2023-03-25T05:14:36;94434.72;;;10.38;64.46
21011;BME280;10663;42.714;23.274;2023-03-25T05:16:07;94426.56;;;10.25;64.50
21011;BME280;10663;42.714;23.274;2023-03-25T05:17:38;94426.56;;;10.25;64.82
21011;BME280;10663;42.714;23.274;2023-03-25T05:19:09;94429.47;;;10.28;64.41
21011;BME280;10663;42.714;23.274;2023-03-25T05:20:42;94428.72;;;10.18;65.09
21011;BME280;10663;42.714;23.274;2023-03-25T05:22:13;94423.38;;;10.12;65.17
21011;BME280;10663;42.714;23.274;2023-03-25T05:23:44;94422.06;;;10.15;65.08
21011;BME280;10663;42.714;23.274;2023-03-25T05:25:15;94419.94;;;10.22;65.15
21011;BME280;10663;42.714;23.274;2023-03-25T05:26:47;94417.28;;;10.32;64.85
21011;BME280;10663;42.714;23.274;2023-03-25T05:28:18;94414.34;;;10.39;64.65
21011;BME280;10663;42.714;23.274;2023-03-25T05:29:49;94415.06;;;10.60;64.17
21011;BME280;10663;42.714;23.274;2023-03-25T05:31:21;94421.06;;;10.75;63.66
21011;BME280;10663;42.714;23.274;2023-03-25T05:32:52;94419.00;;;10.67;63.71
21011;BME280;10663;42.714;23.274;2023-03-25T05:34:23;94418.19;;;10.72;63.85
21011;BME280;10663;42.714;23.274;2023-03-25T05:35:55;94417.31;;;10.92;63.35
21011;BME280;10663;42.714;23.274;2023-03-25T05:37:27;94422.88;;;10.90;63.08
21011;BME280;10663;42.714;23.274;2023-03-25T05:38:58;94422.53;;;11.02;63.12
21011;BME280;10663;42.714;23.274;2023-03-25T05:40:29;94425.50;;;10.95;63.25
21011;BME280;10663;42.714;23.274;2023-03-25T05:42:00;94431.56;;;11.01;63.01
21011;BME280;10663;42.714;23.274;2023-03-25T05:43:32;94431.78;;;11.04;63.23
21011;BME280;10663;42.714;23.274;2023-03-25T05:45:05;94429.34;;;11.18;62.48
21011;BME280;10663;42.714;23.274;2023-03-25T05:46:36;94426.13;;;11.21;62.67
21011;BME280;10663;42.714;23.274;2023-03-25T05:48:07;94423.78;;;11.19;62.39
21011;BME280;10663;42.714;23.274;2023-03-25T05:49:38;94424.91;;;11.08;62.83
21011;BME280;10663;42.714;23.274;2023-03-25T05:51:14;94423.53;;;11.16;62.55
21011;BME280;10663;42.714;23.274;2023-03-25T05:52:46;94424.53;;;11.59;61.68
21011;BME280;10663;42.714;23.274;2023-03-25T05:54:19;94421.16;;;11.53;61.53
21011;BME280;10663;42.714;23.274;2023-03-25T05:55:49;94422.03;;;11.78;60.50
21011;BME280;10663;42.714;23.274;2023-03-25T05:57:21;94421.88;;;11.93;59.95
21011;BME280;10663;42.714;23.274;2023-03-25T05:58:52;94433.16;;;11.80;60.42
21011;BME280;10663;42.714;23.274;2023-03-25T06:00:23;94421.22;;;11.82;59.86
21011;BME280;10663;42.714;23.274;2023-03-25T06:01:54;94429.28;;;12.01;59.29
21011;BME280;10663;42.714;23.274;2023-03-25T06:03:26;94429.03;;;11.63;60.47
21011;BME280;10663;42.714;23.274;2023-03-25T06:04:57;94431.16;;;11.61;60.55
21011;BME280;10663;42.714;23.274;2023-03-25T06:06:30;94422.09;;;12.02;59.99
21011;BME280;10663;42.714;23.274;2023-03-25T06:08:01;94425.69;;;12.40;58.60
21011;BME280;10663;42.714;23.274;2023-03-25T06:09:34;94422.72;;;12.46;58.67
21011;BME280;10663;42.714;23.274;2023-03-25T06:11:06;94412.88;;;12.47;58.54
21011;BME280;10663;42.714;23.274;2023-03-25T06:12:38;94417.72;;;12.63;57.95
21011;BME280;10663;42.714;23.274;2023-03-25T06:14:09;94415.56;;;12.42;58.47
21011;BME280;10663;42.714;23.274;2023-03-25T06:15:40;94415.13;;;12.34;58.74
21011;BME280;10663;42.714;23.274;2023-03-25T06:17:12;94409.88;;;12.53;58.46
21011;BME280;10663;42.714;23.274;2023-03-25T06:18:45;94411.63;;;12.63;57.79
21011;BME280;10663;42.714;23.274;2023-03-25T06:20:20;94408.16;;;12.62;57.97
21011;BME280;10663;42.714;23.274;2023-03-25T06:21:51;94413.25;;;12.83;57.47
21011;BME280;10663;42.714;23.274;2023-03-25T06:23:23;94419.63;;;12.82;57.26
21011;BME280;10663;42.714;23.274;2023-03-25T06:24:54;94417.13;;;12.90;57.21
21011;BME280;10663;42.714;23.274;2023-03-25T06:26:26;94427.31;;;13.02;56.86
21011;BME280;10663;42.714;23.274;2023-03-25T06:27:57;94428.94;;;12.79;56.73
21011;BME280;10663;42.714;23.274;2023-03-25T06:29:33;94434.28;;;12.55;58.31
21011;BME280;10663;42.714;23.274;2023-03-25T06:31:12;94419.91;;;12.80;57.94
21011;BME280;10663;42.714;23.274;2023-03-25T06:32:43;94414.22;;;13.10;57.19
21011;BME280;10663;42.714;23.274;2023-03-25T06:34:14;94418.28;;;13.03;57.32
21011;BME280;10663;42.714;23.274;2023-03-25T06:35:46;94417.03;;;13.38;56.32
21011;BME280;10663;42.714;23.274;2023-03-25T06:37:23;94415.78;;;13.30;56.64
21011;BME280;10663;42.714;23.274;2023-03-25T06:38:56;94426.50;;;13.25;56.66
21011;BME280;10663;42.714;23.274;2023-03-25T06:40:28;94414.84;;;13.59;55.89
21011;BME280;10663;42.714;23.274;2023-03-25T06:42:00;94418.22;;;13.64;55.95
21011;BME280;10663;42.714;23.274;2023-03-25T06:43:40;94418.81;;;13.42;56.62
21011;BME280;10663;42.714;23.274;2023-03-25T06:45:11;94425.72;;;13.43;57.20
21011;BME280;10663;42.714;23.274;2023-03-25T06:46:47;94423.28;;;13.47;56.73
21011;BME280;10663;42.714;23.274;2023-03-25T06:48:45;94420.47;;;13.38;57.10
21011;BME280;10663;42.714;23.274;2023-03-25T06:50:16;94422.78;;;13.45;57.07
21011;BME280;10663;42.714;23.274;2023-03-25T06:51:47;94427.03;;;13.46;57.34
21011;BME280;10663;42.714;23.274;2023-03-25T06:53:18;94422.81;;;13.59;56.93
21011;BME280;10663;42.714;23.274;2023-03-25T06:54:49;94424.28;;;13.51;57.09
21011;BME280;10663;42.714;23.274;2023-03-25T06:56:20;94432.94;;;13.75;56.05
21011;BME280;10663;42.714;23.274;2023-03-25T06:57:55;94430.22;;;13.94;55.51
21011;BME280;10663;42.714;23.274;2023-03-25T06:59:26;94429.28;;;13.71;56.23
21011;BME280;10663;42.714;23.274;2023-03-25T07:00:57;94425.75;;;14.08;55.34
21011;BME280;10663;42.714;23.274;2023-03-25T07:02:32;94428.38;;;13.95;55.68
21011;BME280;10663;42.714;23.274;2023-03-25T07:04:03;94425.94;;;14.12;54.86
21011;BME280;10663;42.714;23.274;2023-03-25T07:05:34;94422.41;;;13.84;55.78
21011;BME280;10663;42.714;23.274;2023-03-25T07:07:06;94424.06;;;14.12;55.26
21011;BME280;10663;42.714;23.274;2023-03-25T07:08:37;94420.00;;;14.61;54.05
21011;BME280;10663;42.714;23.274;2023-03-25T07:10:11;94415.47;;;14.62;53.80
21011;BME280;10663;42.714;23.274;2023-03-25T07:11:42;94418.94;;;14.62;53.89
21011;BME280;10663;42.714;23.274;2023-03-25T07:13:13;94417.31;;;14.34;54.80
21011;BME280;10663;42.714;23.274;2023-03-25T07:14:58;94425.19;;;14.25;54.68
21011;BME280;10663;42.714;23.274;2023-03-25T07:16:29;94408.16;;;14.40;54.26
21011;BME280;10663;42.714;23.274;2023-03-25T07:18:00;94416.06;;;14.45;54.10
21011;BME280;10663;42.714;23.274;2023-03-25T07:19:30;94414.69;;;14.61;53.73
21011;BME280;10663;42.714;23.274;2023-03-25T07:21:01;94421.91;;;14.74;53.68
21011;BME280;10663;42.714;23.274;2023-03-25T07:22:32;94423.53;;;14.29;54.00
21011;BME280;10663;42.714;23.274;2023-03-25T07:24:03;94416.94;;;14.95;52.78
21011;BME280;10663;42.714;23.274;2023-03-25T07:25:34;94415.50;;;15.25;52.17
21011;BME280;10663;42.714;23.274;2023-03-25T07:27:06;94421.50;;;15.66;50.93
21011;BME280;10663;42.714;23.274;2023-03-25T07:28:39;94409.81;;;15.76;50.68
21011;BME280;10663;42.714;23.274;2023-03-25T07:30:10;94410.03;;;15.66;50.77
21011;BME280;10663;42.714;23.274;2023-03-25T07:31:41;94412.78;;;15.75;50.57
21011;BME280;10663;42.714;23.274;2023-03-25T07:33:12;94416.22;;;15.39;51.52
21011;BME280;10663;42.714;23.274;2023-03-25T07:34:43;94409.09;;;15.48;51.46
21011;BME280;10663;42.714;23.274;2023-03-25T07:36:14;94412.16;;;15.78;50.62
21011;BME280;10663;42.714;23.274;2023-03-25T07:37:46;94407.63;;;15.78;50.98
21011;BME280;10663;42.714;23.274;2023-03-25T07:39:17;94412.81;;;16.05;49.61
21011;BME280;10663;42.714;23.274;2023-03-25T07:40:48;94411.31;;;16.44;48.82
21011;BME280;10663;42.714;23.274;2023-03-25T07:42:19;94398.81;;;16.00;49.84
21011;BME280;10663;42.714;23.274;2023-03-25T07:44:06;94391.84;;;15.68;50.58
21011;BME280;10663;42.714;23.274;2023-03-25T07:45:36;94398.00;;;16.30;49.18
21011;BME280;10663;42.714;23.274;2023-03-25T07:47:07;94392.47;;;16.18;49.49
21011;BME280;10663;42.714;23.274;2023-03-25T07:48:38;94386.59;;;16.07;49.99
21011;BME280;10663;42.714;23.274;2023-03-25T07:50:09;94389.34;;;16.25;50.46
21011;BME280;10663;42.714;23.274;2023-03-25T07:51:41;94391.44;;;16.28;49.86
21011;BME280;10663;42.714;23.274;2023-03-25T07:53:12;94390.97;;;16.34;49.91
21011;BME280;10663;42.714;23.274;2023-03-25T07:54:43;94382.56;;;16.58;48.72
21011;BME280;10663;42.714;23.274;2023-03-25T07:56:14;94383.06;;;16.60;49.29
21011;BME280;10663;42.714;23.274;2023-03-25T07:57:45;94375.41;;;16.76;48.88
21011;BME280;10663;42.714;23.274;2023-03-25T07:59:16;94375.56;;;16.00;50.10
21011;BME280;10663;42.714;23.274;2023-03-25T08:00:47;94380.72;;;15.97;50.54
21011;BME280;10663;42.714;23.274;2023-03-25T08:02:17;94383.03;;;16.21;53.04
21011;BME280;10663;42.714;23.274;2023-03-25T08:03:48;94382.00;;;16.61;49.97
21011;BME280;10663;42.714;23.274;2023-03-25T08:05:19;94376.41;;;16.97;49.19
21011;BME280;10663;42.714;23.274;2023-03-25T08:06:53;94373.28;;;17.12;48.29
21011;BME280;10663;42.714;23.274;2023-03-25T08:08:24;94370.78;;;17.25;47.52
21011;BME280;10663;42.714;23.274;2023-03-25T08:09:55;94359.94;;;17.47;49.58
21011;BME280;10663;42.714;23.274;2023-03-25T08:11:26;94353.50;;;17.65;47.00
21011;BME280;10663;42.714;23.274;2023-03-25T08:12:57;94347.47;;;17.59;46.58
21011;BME280;10663;42.714;23.274;2023-03-25T08:14:28;94357.56;;;17.54;47.46
21011;BME280;10663;42.714;23.274;2023-03-25T08:15:59;94358.50;;;17.67;48.86
21011;BME280;10663;42.714;23.274;2023-03-25T08:17:30;94350.47;;;17.58;47.38
21011;BME280;10663;42.714;23.274;2023-03-25T08:19:01;94356.28;;;17.60;46.67
21011;BME280;10663;42.714;23.274;2023-03-25T08:20:33;94348.41;;;17.89;45.95
21011;BME280;10663;42.714;23.274;2023-03-25T08:22:04;94340.47;;;18.10;46.10
21011;BME280;10663;42.714;23.274;2023-03-25T08:23:35;94349.50;;;18.44;44.69
21011;BME280;10663;42.714;23.274;2023-03-25T08:25:06;94345.03;;;18.56;44.89
21011;BME280;10663;42.714;23.274;2023-03-25T08:26:37;94350.00;;;18.37;45.08
21011;BME280;10663;42.714;23.274;2023-03-25T08:43:25;94331.09;;;18.72;44.20
21011;BME280;10663;42.714;23.274;2023-03-25T08:44:56;94333.91;;;18.75;44.56
21011;BME280;10663;42.714;23.274;2023-03-25T08:46:27;94332.72;;;18.85;43.85
21011;BME280;10663;42.714;23.274;2023-03-25T08:47:58;94330.72;;;18.82;43.90
21011;BME280;10663;42.714;23.274;2023-03-25T08:49:29;94327.56;;;18.80;44.03
21011;BME280;10663;42.714;23.274;2023-03-25T08:51:01;94316.69;;;18.76;46.20
21011;BME280;10663;42.714;23.274;2023-03-25T08:52:32;94319.06;;;18.98;42.52
21011;BME280;10663;42.714;23.274;2023-03-25T08:54:02;94310.03;;;19.24;42.42
21011;BME280;10663;42.714;23.274;2023-03-25T08:55:35;94318.31;;;19.19;42.39
21011;BME280;10663;42.714;23.274;2023-03-25T08:57:06;94317.31;;;19.23;42.71
21011;BME280;10663;42.714;23.274;2023-03-25T08:58:37;94319.56;;;18.33;44.09
21011;BME280;10663;42.714;23.274;2023-03-25T09:00:09;94317.75;;;18.54;43.85
21011;BME280;10663;42.714;23.274;2023-03-25T09:01:43;94323.06;;;18.92;42.86